createdAt,value
2023-04-06T00:01:03.223Z,8.93
2023-04-06T00:03:30.727Z,10.90
2023-04-06T00:05:57.831Z,9.77
2023-04-06T00:08:24.855Z,11.80
2023-04-06T00:10:51.950Z,10.77
2023-04-06T00:13:19.151Z,11.07
2023-04-06T00:15:46.113Z,10.73
2023-04-06T00:18:13.483Z,8.97
2023-04-06T00:20:40.523Z,9.63
2023-04-06T00:23:07.718Z,10.50
2023-04-06T00:25:34.935Z,10.07
2023-04-06T00:28:02.068Z,10.27
2023-04-06T00:30:29.113Z,9.80
2023-04-06T00:32:56.133Z,9.30
2023-04-06T00:35:23.161Z,9.37
2023-04-06T00:37:50.186Z,9.20
2023-04-06T00:40:17.847Z,9.07
2023-04-06T00:42:45.333Z,9.27
2023-04-06T00:45:12.478Z,8.87
2023-04-06T00:47:39.544Z,9.40
2023-04-06T00:50:07.543Z,8.73
2023-04-06T00:52:36.700Z,8.20
2023-04-06T00:55:05.365Z,8.23
2023-04-06T00:57:32.890Z,8.83
2023-04-06T01:00:00.196Z,8.03
2023-04-06T01:02:27.623Z,7.97
2023-04-06T01:04:55.760Z,8.47
2023-04-06T01:07:22.975Z,7.87
2023-04-06T01:09:50.013Z,8.03
2023-04-06T01:12:17.282Z,7.60
2023-04-06T01:14:44.341Z,7.77
2023-04-06T01:17:11.486Z,7.33
2023-04-06T01:19:38.586Z,7.00
2023-04-06T01:22:05.986Z,6.97
2023-04-06T01:24:33.860Z,7.37
2023-04-06T01:27:02.217Z,7.57
2023-04-06T01:29:29.325Z,7.27
2023-04-06T01:31:56.632Z,7.30
2023-04-06T01:34:23.696Z,7.43
2023-04-06T01:36:51.294Z,7.93
2023-04-06T01:39:18.412Z,7.90
2023-04-06T01:41:45.432Z,7.70
2023-04-06T01:44:12.489Z,7.67
2023-04-06T01:46:39.553Z,8.10
2023-04-06T01:49:06.958Z,8.17
2023-04-06T01:51:38.709Z,8.17
2023-04-06T01:54:06.473Z,7.67
2023-04-06T01:56:33.464Z,7.40
2023-04-06T01:59:00.470Z,7.10
2023-04-06T02:01:27.586Z,7.20
2023-04-06T02:03:54.677Z,6.93
2023-04-06T02:06:21.778Z,7.13
2023-04-06T02:08:48.815Z,7.57
2023-04-06T02:11:16.119Z,6.70
2023-04-06T02:13:43.125Z,7.13
2023-04-06T02:16:10.764Z,7.37
2023-04-06T02:18:37.802Z,6.87
2023-04-06T02:21:05.038Z,8.20
2023-04-06T02:23:32.079Z,7.50
2023-04-06T02:25:59.042Z,7.60
2023-04-06T02:28:26.043Z,7.87
2023-04-06T02:30:53.330Z,7.23
2023-04-06T02:33:20.558Z,6.80
2023-04-06T02:35:47.658Z,6.93
2023-04-06T02:38:14.669Z,6.53
2023-04-06T02:40:41.754Z,6.90
2023-04-06T02:43:08.945Z,6.57
2023-04-06T02:45:36.069Z,6.60
2023-04-06T02:48:03.266Z,6.03
2023-04-06T02:50:30.371Z,6.63
2023-04-06T02:52:57.422Z,7.03
2023-04-06T02:55:24.463Z,6.40
2023-04-06T02:57:51.433Z,6.43
2023-04-06T03:00:19.080Z,6.47
2023-04-06T03:02:46.240Z,6.47
2023-04-06T03:05:13.439Z,6.67
2023-04-06T03:07:40.714Z,6.70
2023-04-06T03:10:08.521Z,6.40
2023-04-06T03:12:35.673Z,6.07
2023-04-06T03:15:02.844Z,6.10
2023-04-06T03:17:29.831Z,6.30
2023-04-06T03:19:56.825Z,6.37
2023-04-06T03:22:23.922Z,6.40
2023-04-06T03:24:50.947Z,6.03
2023-04-06T03:27:18.029Z,6.10
2023-04-06T03:29:45.005Z,6.70
2023-04-06T03:32:12.091Z,6.47
2023-04-06T03:34:40.688Z,6.53
2023-04-06T03:37:10.367Z,6.37
2023-04-06T03:39:38.004Z,6.67
2023-04-06T03:42:05.402Z,6.27
2023-04-06T03:44:32.979Z,6.73
2023-04-06T03:47:00.442Z,6.90
2023-04-06T03:49:27.565Z,6.20
2023-04-06T03:51:55.504Z,6.90
2023-04-06T03:54:23.202Z,7.47
2023-04-06T03:56:50.403Z,6.90
2023-04-06T03:59:17.426Z,7.07
2023-04-06T04:01:44.482Z,8.47
2023-04-06T04:04:11.925Z,9.63
2023-04-06T04:06:39.045Z,9.50
2023-04-06T04:09:06.093Z,8.90
2023-04-06T04:11:33.146Z,15.23
2023-04-06T04:14:00.301Z,13.67
2023-04-06T04:16:27.361Z,9.67
2023-04-06T04:18:54.413Z,10.20
2023-04-06T04:21:21.548Z,8.47
2023-04-06T04:23:48.566Z,7.87
2023-04-06T04:26:15.668Z,8.63
2023-04-06T04:28:42.650Z,7.80
2023-04-06T04:31:09.858Z,8.27
2023-04-06T04:33:37.052Z,8.13
2023-04-06T04:36:04.522Z,8.13
2023-04-06T04:38:31.559Z,7.17
2023-04-06T04:40:58.523Z,8.03
2023-04-06T04:43:25.730Z,8.53
2023-04-06T04:45:53.578Z,8.20
2023-04-06T04:48:20.896Z,8.73
2023-04-06T04:50:47.880Z,9.03
2023-04-06T04:53:14.925Z,7.93
2023-04-06T04:55:41.927Z,7.53
2023-04-06T04:58:10.100Z,7.03
2023-04-06T05:00:37.234Z,7.97
2023-04-06T05:03:06.590Z,6.20
2023-04-06T05:05:33.661Z,6.90
2023-04-06T05:08:00.692Z,7.57
2023-04-06T05:10:27.851Z,7.60
2023-04-06T05:12:55.522Z,8.83
2023-04-06T05:15:22.559Z,8.20
2023-04-06T05:17:49.612Z,9.33
2023-04-06T05:20:17.116Z,8.77
2023-04-06T05:22:44.150Z,8.93
2023-04-06T05:25:11.235Z,8.80
2023-04-06T05:27:38.326Z,8.70
2023-04-06T05:30:06.795Z,9.03
2023-04-06T05:32:34.369Z,8.50
2023-04-06T05:35:01.534Z,7.27
2023-04-06T05:37:28.578Z,8.67
2023-04-06T05:39:55.678Z,8.37
2023-04-06T05:42:24.150Z,8.67
2023-04-06T05:44:51.185Z,9.03
2023-04-06T05:47:18.213Z,10.07
2023-04-06T05:49:45.506Z,9.37
2023-04-06T05:52:12.515Z,8.50
2023-04-06T05:54:39.664Z,8.43
2023-04-06T05:57:06.677Z,8.13
2023-04-06T05:59:33.739Z,8.60
2023-04-06T06:02:02.253Z,8.43
2023-04-06T06:04:29.428Z,10.40
2023-04-06T06:06:56.455Z,10.73
2023-04-06T06:09:23.605Z,10.73
2023-04-06T06:11:50.952Z,8.77
2023-04-06T06:14:18.115Z,8.97
2023-04-06T06:16:45.266Z,8.67
2023-04-06T06:19:12.364Z,6.77
2023-04-06T06:21:39.371Z,8.13
2023-04-06T06:24:07.310Z,8.07
2023-04-06T06:26:36.795Z,9.23
2023-04-06T06:29:06.472Z,9.37
2023-04-06T06:31:34.042Z,8.70
2023-04-06T06:34:01.123Z,8.93
2023-04-06T06:36:28.449Z,8.90
2023-04-06T06:38:55.485Z,7.77
2023-04-06T06:41:22.492Z,6.73
2023-04-06T06:43:49.504Z,7.13
2023-04-06T06:46:16.682Z,5.97
2023-04-06T06:48:43.875Z,6.47
2023-04-06T06:51:12.762Z,6.43
2023-04-06T06:53:39.942Z,6.83
2023-04-06T06:56:07.293Z,6.43
2023-04-06T06:58:34.357Z,6.30
2023-04-06T07:01:01.862Z,6.37
2023-04-06T07:03:28.986Z,6.07
2023-04-06T07:05:56.699Z,6.25
2023-04-06T07:08:25.226Z,5.40
2023-04-06T07:10:53.949Z,5.77
2023-04-06T07:13:25.117Z,5.47
2023-04-06T07:15:52.540Z,5.75
2023-04-06T07:18:23.754Z,6.30
2023-04-06T07:20:50.889Z,5.43
2023-04-06T07:23:17.956Z,6.47
2023-04-06T07:25:45.041Z,6.38
2023-04-06T07:28:12.118Z,6.30
2023-04-06T07:30:40.132Z,6.20
2023-04-06T07:33:07.202Z,6.35
2023-04-06T07:35:35.922Z,6.57
2023-04-06T07:38:03.579Z,6.00
2023-04-06T07:40:33.741Z,5.88
2023-04-06T07:43:01.012Z,6.20
2023-04-06T07:45:28.075Z,6.65
2023-04-06T07:47:55.202Z,6.40
2023-04-06T07:50:22.484Z,6.57
2023-04-06T07:52:49.710Z,7.05
2023-04-06T07:55:17.989Z,5.97
2023-04-06T07:57:45.386Z,6.53
2023-04-06T08:00:14.088Z,5.97
2023-04-06T08:02:41.318Z,6.60
2023-04-06T08:05:08.938Z,6.90
2023-04-06T08:07:37.347Z,6.68
2023-04-06T08:10:05.379Z,7.63
2023-04-06T08:12:35.134Z,7.38
2023-04-06T08:15:03.638Z,7.63
2023-04-06T08:17:32.241Z,7.35
2023-04-06T08:19:59.542Z,5.10
2023-04-06T08:22:26.650Z,6.72
2023-04-06T08:24:54.376Z,7.30
2023-04-06T08:27:21.609Z,7.20
2023-04-06T08:29:50.766Z,7.65
2023-04-06T08:32:17.848Z,7.13
2023-04-06T08:34:44.925Z,7.07
2023-04-06T08:37:12.053Z,6.82
2023-04-06T08:39:39.098Z,7.65
2023-04-06T08:42:13.836Z,7.45
2023-04-06T08:44:42.206Z,7.65
2023-04-06T08:47:09.325Z,8.57
2023-04-06T08:49:39.874Z,8.25
2023-04-06T08:52:11.858Z,8.68
2023-04-06T08:54:40.166Z,8.32
2023-04-06T08:57:08.501Z,8.60
2023-04-06T08:59:37.569Z,8.57
2023-04-06T09:02:06.597Z,8.93
2023-04-06T09:04:36.765Z,8.85
2023-04-06T09:07:03.925Z,9.10
2023-04-06T09:09:30.986Z,8.65
2023-04-06T09:12:06.886Z,9.35
2023-04-06T09:14:40.556Z,8.57
2023-04-06T09:17:07.880Z,8.85
2023-04-06T09:19:34.944Z,8.45
2023-04-06T09:22:08.358Z,7.32
2023-04-06T09:24:51.254Z,8.48
2023-04-06T09:27:19.183Z,9.40
2023-04-06T09:29:46.333Z,9.57
2023-04-06T09:32:17.523Z,9.07
2023-04-06T09:34:48.061Z,9.90
2023-04-06T09:37:20.584Z,9.70
2023-04-06T09:39:48.336Z,9.55
2023-04-06T09:42:29.273Z,8.50
2023-04-06T09:44:56.500Z,9.43
2023-04-06T09:47:27.766Z,8.30
2023-04-06T09:50:01.344Z,7.40
2023-04-06T09:52:41.582Z,8.90
2023-04-06T09:55:10.869Z,9.13
2023-04-06T09:58:07.650Z,8.75
2023-04-06T10:01:06.912Z,8.45
2023-04-06T10:03:56.098Z,9.43
2023-04-06T10:06:29.610Z,8.25
2023-04-06T10:08:58.882Z,8.18
2023-04-06T10:11:26.495Z,7.95
2023-04-06T10:13:53.688Z,8.52
2023-04-06T10:16:20.943Z,8.45
2023-04-06T10:18:55.163Z,8.70
2023-04-06T10:21:27.706Z,8.30
2023-04-06T10:24:03.294Z,8.55
2023-04-06T10:26:30.319Z,7.35
2023-04-06T10:29:06.940Z,8.48
2023-04-06T10:31:34.048Z,7.45
2023-04-06T10:34:03.307Z,8.23
2023-04-06T10:36:35.025Z,7.70
2023-04-06T10:39:07.727Z,7.43
2023-04-06T10:41:47.198Z,7.63
2023-04-06T10:44:25.671Z,7.78
2023-04-06T10:47:04.128Z,7.75
2023-04-06T10:49:31.232Z,8.88
2023-04-06T10:51:58.744Z,7.75
2023-04-06T10:54:28.281Z,8.18
2023-04-06T10:56:57.131Z,7.72
2023-04-06T10:59:26.137Z,7.60
2023-04-06T11:01:54.286Z,8.52
2023-04-06T11:04:22.092Z,8.02
2023-04-06T11:06:51.130Z,7.97
2023-04-06T11:10:05.452Z,7.82
2023-04-06T11:12:38.104Z,7.38
2023-04-06T11:15:06.861Z,6.93
2023-04-06T11:17:38.115Z,7.38
2023-04-06T11:20:11.996Z,7.10
2023-04-06T11:22:50.864Z,8.02
2023-04-06T11:25:18.345Z,7.85
2023-04-06T11:27:47.905Z,8.25
2023-04-06T11:30:16.254Z,7.72
2023-04-06T11:32:46.391Z,8.15
2023-04-06T11:35:24.541Z,8.35
2023-04-06T11:37:52.453Z,7.70
2023-04-06T11:40:28.963Z,7.53
2023-04-06T11:43:01.309Z,8.20
2023-04-06T11:45:28.326Z,8.15
2023-04-06T11:48:01.518Z,8.45
2023-04-06T11:50:36.760Z,8.30
2023-04-06T11:53:04.247Z,8.43
2023-04-06T11:55:40.099Z,8.65
2023-04-06T11:58:08.151Z,8.55
2023-04-06T12:00:35.839Z,8.95
2023-04-06T12:03:02.990Z,8.88
2023-04-06T12:05:30.171Z,8.60
2023-04-06T12:08:00.035Z,8.35
2023-04-06T12:10:29.406Z,9.40
2023-04-06T12:12:56.600Z,9.27
2023-04-06T12:15:23.774Z,9.15
2023-04-06T12:17:50.961Z,7.25
2023-04-06T12:20:26.039Z,8.57
2023-04-06T12:22:54.584Z,5.55
2023-04-06T12:25:21.891Z,7.95
2023-04-06T12:27:48.977Z,8.52
2023-04-06T12:30:16.490Z,9.10
2023-04-06T12:32:43.574Z,8.07
2023-04-06T12:35:12.699Z,8.38
2023-04-06T12:37:39.954Z,7.55
2023-04-06T12:40:08.112Z,8.00
2023-04-06T12:42:35.201Z,9.18
2023-04-06T12:45:02.205Z,8.65
2023-04-06T12:47:29.946Z,9.10
2023-04-06T12:49:57.599Z,7.97
2023-04-06T12:52:24.739Z,8.20
2023-04-06T12:54:52.431Z,10.20
2023-04-06T12:57:19.895Z,8.10
2023-04-06T12:59:47.437Z,9.13
2023-04-06T13:02:14.791Z,8.60
2023-04-06T13:04:42.756Z,8.40
2023-04-06T13:07:09.801Z,9.00
2023-04-06T13:09:36.801Z,8.65
2023-04-06T13:12:04.122Z,8.32
2023-04-06T13:14:32.367Z,8.63
2023-04-06T13:16:59.371Z,9.23
2023-04-06T13:19:26.621Z,8.10
2023-04-06T13:21:53.806Z,8.40
2023-04-06T13:24:21.218Z,8.05
2023-04-06T13:26:48.275Z,7.45
2023-04-06T13:29:15.356Z,7.68
2023-04-06T13:31:42.631Z,8.52
2023-04-06T13:34:09.647Z,8.25
2023-04-06T13:36:36.744Z,7.90
2023-04-06T13:39:04.286Z,7.75
2023-04-06T13:41:31.300Z,7.55
2023-04-06T13:43:58.986Z,7.53
2023-04-06T13:46:26.404Z,7.57
2023-04-06T13:48:53.444Z,7.00
2023-04-06T13:51:20.496Z,7.57
2023-04-06T13:53:47.802Z,7.53
2023-04-06T13:56:14.845Z,7.80
2023-04-06T13:58:42.036Z,7.18
2023-04-06T14:01:11.458Z,7.75
2023-04-06T14:03:41.198Z,6.45
2023-04-06T14:06:26.832Z,6.25
2023-04-06T14:08:54.704Z,6.22
2023-04-06T14:11:21.729Z,6.75
2023-04-06T14:13:48.721Z,6.93
2023-04-06T14:16:16.296Z,6.97
2023-04-06T14:18:43.756Z,7.57
2023-04-06T14:21:10.909Z,7.35
2023-04-06T14:23:38.112Z,7.10
2023-04-06T14:26:07.728Z,6.80
2023-04-06T14:28:35.917Z,6.78
2023-04-06T14:31:12.745Z,6.20
2023-04-06T14:33:40.833Z,6.43
2023-04-06T14:36:09.880Z,3.85
2023-04-06T14:38:36.931Z,3.47
2023-04-06T14:41:03.937Z,3.67
2023-04-06T14:43:31.134Z,4.70
2023-04-06T14:46:02.720Z,5.47
2023-04-06T14:48:30.073Z,6.50
2023-04-06T14:50:58.400Z,6.32
2023-04-06T14:53:26.066Z,6.18
2023-04-06T14:55:53.950Z,6.00
2023-04-06T14:58:22.396Z,6.80
2023-04-06T15:00:50.102Z,5.75
2023-04-06T15:03:17.676Z,7.07
2023-04-06T15:05:45.970Z,6.47
2023-04-06T15:08:14.748Z,7.05
2023-04-06T15:10:41.728Z,7.40
2023-04-06T15:13:08.704Z,8.18
2023-04-06T15:15:36.515Z,7.57
2023-04-06T15:18:03.725Z,7.45
2023-04-06T15:20:31.522Z,7.53
2023-04-06T15:22:58.530Z,7.25
2023-04-06T15:25:25.778Z,6.85
2023-04-06T15:27:52.787Z,7.78
2023-04-06T15:30:19.832Z,6.90
2023-04-06T15:33:13.425Z,7.43
2023-04-06T15:35:42.890Z,6.50
2023-04-06T15:38:11.689Z,6.97
2023-04-06T15:40:50.055Z,7.30
2023-04-06T15:43:17.558Z,5.93
2023-04-06T15:45:44.573Z,6.40
2023-04-06T15:48:11.527Z,6.07
2023-04-06T15:50:38.754Z,5.47
2023-04-06T15:53:06.078Z,5.75
2023-04-06T15:55:33.236Z,5.97
2023-04-06T15:58:00.208Z,5.43
2023-04-06T16:00:28.891Z,5.50
2023-04-06T16:02:57.054Z,5.70
2023-04-06T16:05:24.451Z,5.38
2023-04-06T16:07:51.398Z,5.47
2023-04-06T16:10:18.454Z,5.38
2023-04-06T16:12:45.503Z,6.13
2023-04-06T16:15:12.914Z,5.10
2023-04-06T16:17:40.001Z,5.13
2023-04-06T16:20:08.250Z,4.97
2023-04-06T16:22:35.330Z,4.80
2023-04-06T16:25:03.013Z,5.15
2023-04-06T16:27:29.956Z,5.50
2023-04-06T16:29:56.938Z,5.47
2023-04-06T16:32:24.091Z,5.50
2023-04-06T16:34:52.255Z,6.25
2023-04-06T16:37:20.143Z,6.20
2023-04-06T16:39:47.235Z,5.15
2023-04-06T16:42:16.150Z,6.32
2023-04-06T16:44:43.174Z,7.07
2023-04-06T16:47:10.184Z,6.43
2023-04-06T16:49:37.151Z,6.40
2023-04-06T16:52:06.288Z,6.72
2023-04-06T16:54:34.646Z,7.65
2023-04-06T16:57:02.849Z,7.45
2023-04-06T16:59:31.317Z,7.35
2023-04-06T17:01:58.582Z,6.82
2023-04-06T17:04:25.624Z,7.25
2023-04-06T17:06:52.884Z,7.70
2023-04-06T17:09:19.902Z,7.68
2023-04-06T17:11:47.270Z,7.22
2023-04-06T17:14:14.492Z,7.68
2023-04-06T17:16:41.638Z,7.45
2023-04-06T17:19:08.663Z,7.27
2023-04-06T17:21:36.125Z,7.75
2023-04-06T17:24:03.251Z,7.40
2023-04-06T17:26:30.227Z,6.95
2023-04-06T17:28:57.277Z,8.30
2023-04-06T17:31:24.253Z,7.40
2023-04-06T17:33:51.401Z,8.13
2023-04-06T17:36:19.290Z,8.23
2023-04-06T17:38:47.618Z,7.70
2023-04-06T17:41:14.839Z,7.90
2023-04-06T17:43:42.414Z,7.97
2023-04-06T17:46:09.537Z,7.40
2023-04-06T17:48:36.582Z,8.03
2023-04-06T17:51:03.586Z,8.53
2023-04-06T17:53:32.515Z,8.10
2023-04-06T17:56:04.501Z,9.30
2023-04-06T17:58:31.833Z,8.27
2023-04-06T18:00:58.955Z,8.13
2023-04-06T18:03:26.248Z,8.13
2023-04-06T18:05:53.247Z,7.23
2023-04-06T18:08:21.725Z,8.23
2023-04-06T18:10:48.954Z,7.50
2023-04-06T18:13:16.416Z,8.00
2023-04-06T18:15:43.444Z,7.87
2023-04-06T18:18:10.468Z,8.63
2023-04-06T18:20:41.631Z,8.37
2023-04-06T18:23:08.709Z,8.83
2023-04-06T18:25:40.427Z,9.40
2023-04-06T18:28:09.437Z,9.57
2023-04-06T18:30:36.586Z,8.97
2023-04-06T18:33:04.371Z,10.07
2023-04-06T18:35:31.665Z,9.67
2023-04-06T18:37:58.920Z,9.53
2023-04-06T18:40:35.910Z,8.60
2023-04-06T18:43:06.293Z,8.67
2023-04-06T18:45:40.856Z,8.33
2023-04-06T18:48:07.832Z,9.80
2023-04-06T18:50:35.496Z,8.97
2023-04-06T18:53:03.121Z,9.87
2023-04-06T18:55:33.709Z,9.63
2023-04-06T18:58:00.937Z,10.00
2023-04-06T19:00:28.002Z,8.80
2023-04-06T19:02:55.319Z,8.77
2023-04-06T19:05:22.609Z,9.77
2023-04-06T19:07:52.698Z,9.57
2023-04-06T19:10:20.375Z,10.33
2023-04-06T19:12:48.060Z,10.60
2023-04-06T19:15:16.156Z,10.43
2023-04-06T19:17:43.481Z,10.47
2023-04-06T19:20:11.172Z,8.43
2023-04-06T19:22:38.622Z,9.10
2023-04-06T19:25:07.876Z,9.03
2023-04-06T19:27:35.439Z,9.23
2023-04-06T19:30:03.733Z,7.80
2023-04-06T19:32:31.034Z,7.43
2023-04-06T19:34:59.737Z,8.53
2023-04-06T19:37:26.974Z,6.07
2023-04-06T19:39:54.013Z,7.57
2023-04-06T19:42:21.913Z,8.27
2023-04-06T19:44:49.061Z,8.37
2023-04-06T19:47:16.423Z,7.07
2023-04-06T19:49:43.787Z,7.60
2023-04-06T19:52:11.570Z,7.03
2023-04-06T19:54:40.363Z,8.03
2023-04-06T19:57:08.637Z,8.47
2023-04-06T19:59:36.297Z,8.30
2023-04-06T20:02:04.136Z,8.40
2023-04-06T20:04:31.927Z,9.33
2023-04-06T20:06:59.872Z,9.40
2023-04-06T20:09:27.308Z,8.90
2023-04-06T20:11:54.935Z,9.40
2023-04-06T20:14:22.952Z,8.40
2023-04-06T20:16:50.935Z,8.77
2023-04-06T20:19:18.285Z,8.27
2023-04-06T20:21:45.385Z,9.53
2023-04-06T20:24:12.557Z,9.77
2023-04-06T20:26:39.732Z,8.80
2023-04-06T20:29:06.736Z,9.13
2023-04-06T20:31:34.131Z,8.43
2023-04-06T20:34:02.066Z,8.33
2023-04-06T20:36:32.105Z,8.60
2023-04-06T20:38:59.103Z,9.27
2023-04-06T20:41:26.172Z,8.03
2023-04-06T20:43:53.216Z,8.23
2023-04-06T20:46:20.783Z,8.77
2023-04-06T20:48:47.878Z,8.97
2023-04-06T20:51:20.728Z,8.63
2023-04-06T20:53:48.652Z,8.27
2023-04-06T20:56:15.872Z,9.73
2023-04-06T20:58:42.916Z,9.67
2023-04-06T21:01:15.972Z,9.23
2023-04-06T21:03:44.773Z,9.17
2023-04-06T21:06:12.309Z,8.13
2023-04-06T21:08:39.426Z,7.67
2023-04-06T21:11:06.658Z,7.80
2023-04-06T21:13:35.767Z,8.13
2023-04-06T21:16:03.424Z,8.60
2023-04-06T21:18:31.945Z,5.50
2023-04-06T21:20:59.350Z,8.80
2023-04-06T21:23:26.526Z,8.70
2023-04-06T21:25:57.233Z,8.10
2023-04-06T21:28:26.820Z,8.27
2023-04-06T21:30:54.933Z,8.57
2023-04-06T21:33:22.150Z,9.40
2023-04-06T21:35:49.567Z,8.80
2023-04-06T21:38:16.574Z,8.80
2023-04-06T21:40:43.652Z,8.30
2023-04-06T21:43:10.624Z,8.60
2023-04-06T21:45:37.678Z,8.90
2023-04-06T21:48:05.125Z,9.50
2023-04-06T21:50:32.100Z,8.80
2023-04-06T21:52:59.068Z,8.20
2023-04-06T21:55:26.884Z,8.93
2023-04-06T21:57:54.416Z,8.60
2023-04-06T22:00:21.636Z,9.07
2023-04-06T22:02:48.895Z,8.97
2023-04-06T22:05:16.422Z,8.53
2023-04-06T22:07:46.663Z,8.17
2023-04-06T22:10:13.720Z,7.57
2023-04-06T22:12:40.752Z,8.07
2023-04-06T22:15:09.442Z,8.23
2023-04-06T22:17:36.712Z,8.13
2023-04-06T22:20:04.157Z,8.27
2023-04-06T22:22:31.291Z,8.63
2023-04-06T22:24:58.522Z,9.73
2023-04-06T22:27:25.433Z,8.77
2023-04-06T22:29:52.415Z,7.93
2023-04-06T22:32:19.574Z,8.63
2023-04-06T22:34:46.590Z,6.60
2023-04-06T22:37:13.554Z,7.93
2023-04-06T22:39:40.567Z,7.70
2023-04-06T22:42:07.608Z,8.00
2023-04-06T22:44:34.577Z,7.23
2023-04-06T22:47:01.606Z,6.83
2023-04-06T22:49:28.653Z,7.50
2023-04-06T22:51:55.593Z,7.80
2023-04-06T22:54:22.652Z,6.07
2023-04-06T22:56:50.304Z,7.23
2023-04-06T22:59:17.239Z,6.73
2023-04-06T23:01:44.317Z,6.37
2023-04-06T23:04:11.619Z,7.40
2023-04-06T23:06:38.615Z,7.37
2023-04-06T23:09:05.774Z,7.37
2023-04-06T23:11:33.015Z,6.23
2023-04-06T23:13:59.975Z,6.87
2023-04-06T23:16:27.581Z,5.70
2023-04-06T23:18:54.615Z,6.17
2023-04-06T23:21:21.598Z,6.27
2023-04-06T23:23:48.568Z,6.67
2023-04-06T23:26:15.676Z,5.87
2023-04-06T23:28:42.580Z,5.97
2023-04-06T23:31:09.588Z,6.10
2023-04-06T23:33:36.510Z,6.30
2023-04-06T23:36:03.621Z,6.30
2023-04-06T23:38:30.644Z,5.43
2023-04-06T23:40:57.573Z,6.77
2023-04-06T23:43:24.666Z,5.93
2023-04-06T23:45:51.603Z,5.60
2023-04-06T23:48:18.645Z,6.13
2023-04-06T23:50:45.819Z,5.13
2023-04-06T23:53:12.936Z,4.97
2023-04-06T23:55:39.901Z,5.50
2023-04-06T23:58:06.798Z,5.50
